Temp: 4.3°C   Baro: 1017.2mb
  Wind: 0.0mph   Dir: NNW (342°)
  Rain: 0.0mm (0.0mm/hr)
  Solar: 0W/m2  Hum: 84%

Historic data

Bath Spa Weather Station Historical Data
Daily Summary for June 21, 2021 Units:  Metric    English   Both
Daily Weekly Monthly Yearly Custom
  High: Low: Average:
Temperature: 8.7 °C 3.1 °C 6.1 °C
Dew Point: 7.9 °C 0.9 °C 3.8 °C
Humidity: 92% 75% 83%
Wind Speed: 18km/h 0km/h 5.5km/h
Wind Gust: 27.4km/h - -
Wind- - SW
Pressure: 1027 hPa 1019.5 hPa -
Precipitation: 0.25 mm    
Historical Graphs
 
 
Tabular Data for June 21, 2021
Time Temperature Dew Point Pressure Wind Wind Speed Wind Gust Humidity Rainfall Rate (Hourly) solar
00:04 8.7 °C 7.9 °C 1019.9 hPa North 2.7 km/h 6.4 km/h 92% 0 mm 0 W/m2
00:09 8.7 °C 7.9 °C 1019.9 hPa North 8.4 km/h 16.1 km/h 92% 0.25 mm 0 W/m2
00:14 8.5 °C 7.8 °C 1019.9 hPa North 5.5 km/h 11.3 km/h 92% 0.25 mm 0 W/m2
00:19 8.4 °C 7.7 °C 1019.9 hPa North 5 km/h 11.3 km/h 92% 0.25 mm 0 W/m2
00:24 8.4 °C 7.7 °C 1019.9 hPa North 4.5 km/h 9.7 km/h 92% 0.25 mm 0 W/m2
00:29 8.4 °C 7.7 °C 1019.9 hPa North 2.3 km/h 9.7 km/h 92% 0.25 mm 0 W/m2
00:34 8.4 °C 7.7 °C 1019.9 hPa North 6.6 km/h 14.5 km/h 92% 0.25 mm 0 W/m2
00:39 8.6 °C 7.8 °C 1019.9 hPa North 8.2 km/h 17.7 km/h 92% 0.25 mm 0 W/m2
00:44 8.4 °C 7.6 °C 1019.9 hPa North 4.7 km/h 17.7 km/h 91.6% 0.25 mm 0 W/m2
00:49 8.4 °C 7.6 °C 1019.9 hPa North 4.3 km/h 9.7 km/h 91.2% 0.25 mm 0 W/m2
00:54 8.4 °C 7.5 °C 1019.5 hPa North 2.4 km/h 8 km/h 91% 0.25 mm 0 W/m2
00:59 8.4 °C 7.6 °C 1019.5 hPa North 2.6 km/h 9.7 km/h 91% 0.25 mm 0 W/m2
01:04 8.5 °C 7.6 °C 1019.5 hPa North 2.6 km/h 6.4 km/h 91% 0.25 mm 0 W/m2
01:09 8.5 °C 7.6 °C 1019.5 hPa North 2.3 km/h 4.8 km/h 91% 0.25 mm 0 W/m2
01:14 8.6 °C 7.7 °C 1019.5 hPa North 1.9 km/h 4.8 km/h 91% 0 mm 0 W/m2
01:19 8.6 °C 7.7 °C 1019.5 hPa North 1.9 km/h 4.8 km/h 91% 0 mm 0 W/m2
01:24 8.6 °C 7.7 °C 1019.5 hPa North 2.7 km/h 6.4 km/h 91% 0 mm 0 W/m2
01:29 8.6 °C 7.5 °C 1019.5 hPa North 0.6 km/h 4.8 km/h 90.2% 0 mm 0 W/m2
01:34 8.6 °C 7.5 °C 1019.5 hPa North 0.6 km/h 4.8 km/h 90% 0 mm 0 W/m2
01:39 8.6 °C 7.5 °C 1019.5 hPa North 1.1 km/h 3.2 km/h 90% 0 mm 0 W/m2
01:44 8.6 °C 7.4 °C 1019.5 hPa North 2.4 km/h 6.4 km/h 90% 0 mm 0 W/m2
01:49 8.5 °C 7.4 °C 1019.5 hPa North 6 km/h 12.9 km/h 90% 0 mm 0 W/m2
01:54 8.4 °C 7.3 °C 1019.5 hPa North 4.5 km/h 14.5 km/h 90% 0 mm 0 W/m2
01:59 8.4 °C 7.3 °C 1019.5 hPa North 6.6 km/h 8 km/h 90% 0 mm 0 W/m2
02:04 8.5 °C 7.3 °C 1019.5 hPa North 7.7 km/h 16.1 km/h 89% 0 mm 0 W/m2
02:09 8.6 °C 7.2 °C 1019.5 hPa North 7.1 km/h 14.5 km/h 88% 0 mm 0 W/m2
02:14 8.7 °C 7.2 °C 1019.5 hPa North 3.4 km/h 14.5 km/h 87.4% 0 mm 0 W/m2
02:19 8.7 °C 7.1 °C 1019.5 hPa North 3.5 km/h 14.5 km/h 87% 0 mm 0 W/m2
02:24 8.6 °C 7 °C 1019.5 hPa North 0.8 km/h 4.8 km/h 86.4% 0 mm 0 W/m2
02:29 8.6 °C 6.8 °C 1019.9 hPa North 2.1 km/h 6.4 km/h 86% 0 mm 0 W/m2
02:34 8.4 °C 6.8 °C 1019.9 hPa North 1.6 km/h 3.2 km/h 86.2% 0 mm 0 W/m2
02:39 8.4 °C 6.8 °C 1019.5 hPa North 4.3 km/h 9.7 km/h 86.8% 0 mm 0 W/m2
02:44 8.3 °C 6.6 °C 1019.5 hPa North 5.5 km/h 8 km/h 86% 0 mm 0 W/m2
02:49 8.2 °C 6.5 °C 1019.9 hPa North 4 km/h 12.9 km/h 86% 0 mm 0 W/m2
02:54 8.2 °C 6.4 °C 1019.5 hPa North 5.8 km/h 12.9 km/h 86% 0 mm 0 W/m2
02:59 8.1 °C 6.4 °C 1019.5 hPa North 4 km/h 8 km/h 86% 0 mm 0 W/m2
03:04 7.9 °C 6.3 °C 1019.9 hPa North 4 km/h 6.4 km/h 86% 0 mm 0 W/m2
03:09 7.8 °C 6.2 °C 1019.5 hPa North 2.7 km/h 8 km/h 86% 0 mm 0 W/m2
03:14 7.7 °C 6.1 °C 1019.9 hPa North 2.3 km/h 6.4 km/h 86% 0 mm 0 W/m2
03:19 7.7 °C 6.1 °C 1019.5 hPa North 3.9 km/h 8 km/h 86.8% 0 mm 0 W/m2
03:24 7.5 °C 6 °C 1019.9 hPa North 4.7 km/h 9.7 km/h 87% 0 mm 0 W/m2
03:29 7.4 °C 5.9 °C 1019.9 hPa North 3.2 km/h 9.7 km/h 87% 0 mm 0 W/m2
03:34 7.4 °C 5.9 °C 1019.9 hPa North 3.5 km/h 6.4 km/h 87.6% 0 mm 0 W/m2
03:39 7.3 °C 5.9 °C 1019.9 hPa North 3.5 km/h 6.4 km/h 88% 0 mm 0 W/m2
03:44 7.2 °C 5.8 °C 1019.5 hPa North 2.7 km/h 6.4 km/h 88% 0 mm 0 W/m2
03:49 7.1 °C 5.7 °C 1019.5 hPa North 3.9 km/h 8 km/h 88% 0 mm 0 W/m2
03:54 7.1 °C 5.7 °C 1019.5 hPa North 5.3 km/h 9.7 km/h 88% 0 mm 0 W/m2
03:59 7 °C 5.6 °C 1019.5 hPa North 4.7 km/h 12.9 km/h 88% 0 mm 0 W/m2
04:04 7 °C 5.6 °C 1019.5 hPa North 4.3 km/h 11.3 km/h 88% 0 mm 0 W/m2
04:09 6.9 °C 5.5 °C 1019.5 hPa North 3.7 km/h 12.9 km/h 88% 0 mm 0 W/m2
04:14 6.9 °C 5.5 °C 1019.5 hPa North 5.3 km/h 11.3 km/h 88% 0 mm 0 W/m2
04:19 6.8 °C 5.4 °C 1019.5 hPa North 5.5 km/h 9.7 km/h 87.8% 0 mm 0 W/m2
04:24 6.8 °C 5.3 °C 1019.5 hPa North 2.7 km/h 8 km/h 87% 0 mm 0 W/m2
04:29 6.8 °C 5.3 °C 1019.5 hPa North 2.6 km/h 4.8 km/h 87% 0 mm 0 W/m2
04:34 6.7 °C 5.2 °C 1019.5 hPa North 2.6 km/h 6.4 km/h 87% 0 mm 0 W/m2
04:39 6.7 °C 5.2 °C 1019.5 hPa North 1.6 km/h 8 km/h 87% 0 mm 0 W/m2
04:44 6.6 °C 5.1 °C 1019.5 hPa North 0.6 km/h 4.8 km/h 87% 0 mm 0 W/m2
04:49 6.5 °C 5 °C 1019.5 hPa Calm   4.8 km/h 87% 0 mm 0 W/m2
04:54 6.4 °C 4.9 °C 1019.5 hPa North 1.9 km/h 6.4 km/h 87% 0 mm 0 W/m2
04:59 6.3 °C 4.8 °C 1019.5 hPa North 2.6 km/h 6.4 km/h 87% 0 mm 0 W/m2
05:04 6.3 °C 4.8 °C 1019.5 hPa North 3.2 km/h 4.8 km/h 87% 0 mm 0 W/m2
05:09 6.3 °C 4.8 °C 1019.5 hPa North 1.4 km/h 4.8 km/h 87% 0 mm 0 W/m2
05:14 6.2 °C 4.7 °C 1019.9 hPa North 2.6 km/h 4.8 km/h 87% 0 mm 0 W/m2
05:19 6.2 °C 4.7 °C 1019.5 hPa North 4.2 km/h 9.7 km/h 87% 0 mm 0 W/m2
05:24 6.2 °C 4.7 °C 1019.5 hPa North 2.7 km/h 8 km/h 87% 0 mm 0 W/m2
05:29 6.2 °C 4.7 °C 1019.5 hPa North 2.6 km/h 6.4 km/h 87% 0 mm 0 W/m2
05:34 6.1 °C 4.6 °C 1019.9 hPa North 1.3 km/h 6.4 km/h 87% 0 mm 0 W/m2
05:39 5.9 °C 4.4 °C 1019.9 hPa North 1.3 km/h 4.8 km/h 87% 0 mm 0 W/m2
05:44 5.8 °C 4.3 °C 1019.5 hPa North 5.5 km/h 9.7 km/h 87% 0 mm 0 W/m2
05:49 5.8 °C 4.3 °C 1019.5 hPa North 4.2 km/h 9.7 km/h 87% 0 mm 0 W/m2
05:54 5.8 °C 4.3 °C 1019.5 hPa North 4.7 km/h 11.3 km/h 87% 0 mm 0 W/m2
05:59 5.8 °C 4.3 °C 1019.9 hPa North 3.4 km/h 8 km/h 87% 0 mm 0 W/m2
06:04 5.8 °C 4.3 °C 1019.9 hPa North 6 km/h 14.5 km/h 87% 0 mm 0 W/m2
06:09 5.9 °C 4.4 °C 1019.9 hPa North 6 km/h 14.5 km/h 87% 0 mm 0 W/m2
06:14 5.9 °C 4.4 °C 1019.5 hPa North 4.7 km/h 8 km/h 87% 0 mm 0 W/m2
06:19 5.9 °C 4.4 °C 1019.9 hPa North 3.9 km/h 9.7 km/h 87% 0 mm 0 W/m2
06:24 5.8 °C 4.3 °C 1019.5 hPa North 3.7 km/h 8 km/h 86.8% 0 mm 0 W/m2
06:29 5.8 °C 4.1 °C 1019.9 hPa North 3.7 km/h 9.7 km/h 86% 0 mm 0 W/m2
06:34 5.8 °C 4.1 °C 1019.9 hPa North 3.4 km/h 8 km/h 86% 0 mm 0 W/m2
06:39 5.8 °C 4.2 °C 1019.5 hPa North 4 km/h 8 km/h 86.4% 0 mm 0 W/m2
06:44 5.7 °C 4.1 °C 1019.9 hPa North 3.4 km/h 9.7 km/h 86% 0 mm 0 W/m2
06:49 5.7 °C 4 °C 1019.5 hPa North 4.2 km/h 8 km/h 86.2% 0 mm 0 W/m2
06:54 5.6 °C 4.1 °C 1019.5 hPa North 2.3 km/h 8 km/h 87% 0 mm 0 W/m2
06:59 5.6 °C 4.1 °C 1019.5 hPa North 0.6 km/h 3.2 km/h 87% 0 mm 0 W/m2
07:04 5.4 °C 3.9 °C 1019.9 hPa North 1.6 km/h 4.8 km/h 87% 0 mm 0 W/m2
07:09 5.3 °C 3.8 °C 1019.9 hPa North 3.5 km/h 6.4 km/h 87% 0 mm 0 W/m2
07:14 5.3 °C 3.8 °C 1019.9 hPa North 3.2 km/h 4.8 km/h 87% 0 mm 0 W/m2
07:19 5.2 °C 3.7 °C 1019.9 hPa North 3.2 km/h 4.8 km/h 87% 0 mm 0 W/m2
07:24 4.9 °C 3.4 °C 1019.9 hPa North 1.1 km/h 4.8 km/h 87% 0 mm 0 W/m2
07:29 4.9 °C 3.5 °C 1019.9 hPa North 2.4 km/h 4.8 km/h 87.4% 0 mm 0 W/m2
07:34 4.9 °C 3.6 °C 1019.9 hPa North 2.9 km/h 4.8 km/h 87.8% 0 mm 0 W/m2
07:39 4.8 °C 3.5 °C 1019.9 hPa North 2.1 km/h 4.8 km/h 88% 0 mm 5 W/m2
07:44 4.8 °C 3.5 °C 1019.9 hPa North 4.8 km/h 9.7 km/h 88% 0 mm 7 W/m2
07:49 4.9 °C 3.6 °C 1020.2 hPa North 4.8 km/h 8 km/h 88% 0 mm 9 W/m2
07:54 5 °C 3.7 °C 1020.2 hPa North 2.7 km/h 8 km/h 88% 0 mm 11 W/m2
07:58 5.1 °C 3.8 °C 1020.2 hPa North 4 km/h 8 km/h 88% 0 mm 12 W/m2
08:04 5.1 °C 3.8 °C 1020.2 hPa North 3.4 km/h 6.4 km/h 88% 0 mm 14 W/m2
08:09 5.2 °C 3.9 °C 1020.5 hPa North 2.6 km/h 4.8 km/h 88% 0 mm 16 W/m2
08:14 5.3 °C 4 °C 1020.5 hPa North 2.1 km/h 6.4 km/h 88% 0 mm 18 W/m2
08:19 5.5 °C 4.1 °C 1020.5 hPa North 2.9 km/h 8 km/h 87.6% 0 mm 18 W/m2
08:24 5.6 °C 4.1 °C 1020.5 hPa North 3.9 km/h 12.9 km/h 87% 0 mm 19 W/m2
08:29 5.7 °C 4.1 °C 1020.5 hPa North 3.9 km/h 9.7 km/h 86.4% 0 mm 21 W/m2
08:34 5.8 °C 4.1 °C 1020.5 hPa North 4.2 km/h 12.9 km/h 86% 0 mm 21 W/m2
08:39 5.8 °C 4.1 °C 1020.5 hPa North 4.3 km/h 9.7 km/h 86% 0 mm 23 W/m2
08:44 5.9 °C 4.2 °C 1020.5 hPa North 4.3 km/h 11.3 km/h 86% 0 mm 23 W/m2
08:49 5.9 °C 4.2 °C 1020.9 hPa North 4.7 km/h 9.7 km/h 86% 0 mm 25 W/m2
08:54 6 °C 4.2 °C 1020.5 hPa North 4 km/h 9.7 km/h 85.4% 0 mm 25 W/m2
08:59 6.1 °C 4.4 °C 1020.9 hPa North 3.9 km/h 9.7 km/h 86% 0 mm 26 W/m2
09:04 6.3 °C 4.5 °C 1020.9 hPa North 4.7 km/h 12.9 km/h 85% 0 mm 28 W/m2
09:09 6.3 °C 4.4 °C 1020.9 hPa North 4.7 km/h 12.9 km/h 84.8% 0 mm 32 W/m2
09:14 6.3 °C 4.4 °C 1020.9 hPa North 3.2 km/h 9.7 km/h 84.8% 0 mm 35 W/m2
09:19 6.5 °C 4.7 °C 1020.9 hPa North 3.5 km/h 9.7 km/h 84.8% 0 mm 42 W/m2
09:24 6.6 °C 4.7 °C 1020.9 hPa North 5 km/h 11.3 km/h 84.2% 0 mm 49 W/m2
09:29 6.6 °C 4.6 °C 1020.9 hPa North 2.4 km/h 8 km/h 84% 0 mm 60 W/m2
09:34 6.7 °C 4.6 °C 1021.2 hPa North 8.4 km/h 14.5 km/h 83.8% 0 mm 72 W/m2
09:39 6.7 °C 4.4 °C 1021.2 hPa North 5.5 km/h 14.5 km/h 83% 0 mm 86 W/m2
09:44 6.8 °C 4.7 °C 1021.2 hPa North 4.2 km/h 11.3 km/h 83% 0 mm 93 W/m2
09:49 7.1 °C 4.7 °C 1021.2 hPa North 7.1 km/h 16.1 km/h 82% 0 mm 104 W/m2
09:54 6.9 °C 4.4 °C 1021.2 hPa North 6.6 km/h 16.1 km/h 81% 0 mm 141 W/m2
09:58 6.9 °C 4.4 °C 1021.2 hPa NNE 6.8 km/h 16.1 km/h 81% 0 mm 190 W/m2
10:39 6.8 °C 4.3 °C 1021.6 hPa NNE 10 km/h 16.1 km/h 81% 0 mm 134 W/m2
10:44 6.9 °C 4.4 °C 1021.6 hPa NE 8 km/h 17.7 km/h 81% 0 mm 120 W/m2
10:48 6.9 °C 4.4 °C 1021.6 hPa NE 8 km/h 20.9 km/h 81% 0 mm 128 W/m2
10:54 6.9 °C 4.4 °C 1021.6 hPa NNE 9.5 km/h 24.1 km/h 81% 0 mm 132 W/m2
10:59 6.9 °C 4.4 °C 1021.6 hPa NNE 6.4 km/h 11.3 km/h 81% 0 mm 130 W/m2
11:04 6.9 °C 4.4 °C 1021.6 hPa NNE 8.4 km/h 17.7 km/h 81% 0 mm 130 W/m2
11:09 6.9 °C 4.4 °C 1021.6 hPa NNE 8 km/h 17.7 km/h 81% 0 mm 93 W/m2
11:14 6.8 °C 4.3 °C 1021.6 hPa NE 6.4 km/h 11.3 km/h 81% 0 mm 118 W/m2
11:19 6.9 °C 4.4 °C 1021.6 hPa NE 9.7 km/h 12.9 km/h 81% 0 mm 172 W/m2
11:24 7.1 °C 4.5 °C 1021.6 hPa NNE 14.2 km/h 22.5 km/h 81% 0 mm 297 W/m2
11:29 7.2 °C 4.6 °C 1021.6 hPa NNE 10.1 km/h 24.1 km/h 81% 0 mm 165 W/m2
11:34 7.1 °C 4.5 °C 1021.6 hPa NNE 15.4 km/h 19.3 km/h 81% 0 mm 141 W/m2
11:39 7 °C 4.5 °C 1021.6 hPa North 11.6 km/h 19.3 km/h 81% 0 mm 195 W/m2
11:44 7 °C 4.4 °C 1021.6 hPa NNE 9.5 km/h 20.9 km/h 80.6% 0 mm 257 W/m2
11:49 7.4 °C 4.8 °C 1021.6 hPa NNE 6.1 km/h 20.9 km/h 80.8% 0 mm 327 W/m2
11:54 7.6 °C 4.8 °C 1021.6 hPa NNE 12.2 km/h 24.1 km/h 79.4% 0 mm 301 W/m2
11:59 7.6 °C 4.7 °C 1021.6 hPa North 15.4 km/h 24.1 km/h 79% 0 mm 309 W/m2
12:04 7.3 °C 4.4 °C 1021.9 hPa North 10.9 km/h 24.1 km/h 79% 0 mm 174 W/m2
12:09 7.6 °C 4.7 °C 1021.6 hPa NE 7.2 km/h 19.3 km/h 79.2% 0 mm 292 W/m2
12:13 7.8 °C 4.8 °C 1021.6 hPa NNE 6.8 km/h 14.5 km/h 78.8% 0 mm 279 W/m2
12:19 7.8 °C 4.7 °C 1021.6 hPa NNE 10 km/h 22.5 km/h 78% 0 mm 283 W/m2
12:24 7.7 °C 4.6 °C 1021.9 hPa North 15.1 km/h 22.5 km/h 78% 0 mm 281 W/m2
12:29 7.7 °C 4.6 °C 1021.6 hPa NNE 6.4 km/h 17.7 km/h 78% 0 mm 271 W/m2
12:34 7.9 °C 4.7 °C 1021.9 hPa NNE 10.6 km/h 22.5 km/h 77.2% 0 mm 269 W/m2
12:39 7.8 °C 4.6 °C 1021.9 hPa NNE 6.3 km/h 22.5 km/h 77% 0 mm 95 W/m2
12:44 7.8 °C 4.5 °C 1021.9 hPa NE 6.4 km/h 14.5 km/h 77% 0 mm 83 W/m2
12:49 7.7 °C 4.4 °C 1021.9 hPa NE 10.3 km/h 19.3 km/h 77% 0 mm 130 W/m2
12:54 7.7 °C 4.4 °C 1021.9 hPa NE 6.3 km/h 17.7 km/h 77% 0 mm 146 W/m2
12:59 7.8 °C 4.5 °C 1021.9 hPa NNE 11.6 km/h 22.5 km/h 76.8% 0 mm 146 W/m2
13:04 7.5 °C 4.1 °C 1021.9 hPa NNE 12.9 km/h 22.5 km/h 76.4% 0 mm 116 W/m2
13:09 7.4 °C 4.1 °C 1021.9 hPa NNE 10.9 km/h 22.5 km/h 77% 0 mm 121 W/m2
13:14 7.3 °C 3.9 °C 1021.9 hPa North 18 km/h 27.4 km/h 76.6% 0 mm 120 W/m2
13:19 7.2 °C 3.7 °C 1021.9 hPa NNE 10.9 km/h 22.5 km/h 76% 0 mm 114 W/m2
13:24 7.2 °C 3.7 °C 1021.9 hPa NNE 9.3 km/h 20.9 km/h 76% 0 mm 88 W/m2
13:29 7.2 °C 3.7 °C 1021.9 hPa NNE 6.8 km/h 22.5 km/h 76% 0 mm 127 W/m2
13:34 7.3 °C 3.8 °C 1022.2 hPa NNE 9.8 km/h 17.7 km/h 76% 0 mm 130 W/m2
13:39 7.3 °C 3.8 °C 1021.9 hPa NNE 12.2 km/h 24.1 km/h 76% 0 mm 142 W/m2
13:44 7.2 °C 3.7 °C 1021.9 hPa NNE 6.6 km/h 19.3 km/h 76% 0 mm 144 W/m2
13:49 7.3 °C 3.8 °C 1021.9 hPa NNE 11.9 km/h 17.7 km/h 76% 0 mm 88 W/m2
13:54 7.3 °C 3.8 °C 1021.9 hPa NNE 9.7 km/h 20.9 km/h 76% 0 mm 171 W/m2
13:59 7.3 °C 3.8 °C 1022.2 hPa NNE 10.3 km/h 25.7 km/h 76% 0 mm 216 W/m2
14:04 7.4 °C 3.8 °C 1022.2 hPa NNE 10.8 km/h 24.1 km/h 75.4% 0 mm 207 W/m2
14:09 7.6 °C 4 °C 1022.2 hPa NNE 10.9 km/h 19.3 km/h 75.8% 0 mm 178 W/m2
14:14 7.6 °C 3.9 °C 1022.2 hPa NNE 11.3 km/h 25.7 km/h 75% 0 mm 171 W/m2
14:19 7.6 °C 3.9 °C 1022.2 hPa NNE 10 km/h 25.7 km/h 75% 0 mm 185 W/m2
14:24 7.7 °C 4 °C 1022.2 hPa North 5.1 km/h 16.1 km/h 75% 0 mm 156 W/m2
14:29 7.6 °C 4.1 °C 1022.2 hPa North 4.8 km/h 14.5 km/h 75.8% 0 mm 192 W/m2
14:34 7.7 °C 4.1 °C 1022.2 hPa North 10 km/h 19.3 km/h 75.8% 0 mm 193 W/m2
14:39 7.6 °C 3.9 °C 1022.2 hPa North 7.4 km/h 20.9 km/h 75% 0 mm 113 W/m2
14:44 7.4 °C 3.7 °C 1022.2 hPa NNW 7.7 km/h 20.9 km/h 75% 0 mm 114 W/m2
14:49 7.3 °C 3.7 °C 1022.6 hPa North 6.8 km/h 14.5 km/h 75% 0 mm 123 W/m2
14:54 7.4 °C 3.8 °C 1022.6 hPa NNE 7.9 km/h 19.3 km/h 75.4% 0 mm 97 W/m2
14:59 7.3 °C 3.7 °C 1022.6 hPa NNE 9.5 km/h 19.3 km/h 75.4% 0 mm 77 W/m2
15:04 7.1 °C 3.4 °C 1022.6 hPa North 10.6 km/h 17.7 km/h 75% 0 mm 76 W/m2
15:09 6.9 °C 3.3 °C 1022.6 hPa NNE 10.9 km/h 20.9 km/h 75% 0 mm 79 W/m2
15:14 7.1 °C 3.5 °C 1022.6 hPa North 6.1 km/h 12.9 km/h 75% 0 mm 79 W/m2
15:19 7.1 °C 3.5 °C 1022.6 hPa North 4.7 km/h 9.7 km/h 75% 0 mm 49 W/m2
15:24 7 °C 3.4 °C 1022.6 hPa North 7.1 km/h 16.1 km/h 75% 0 mm 44 W/m2
15:29 6.7 °C 3.2 °C 1022.6 hPa North 8 km/h 12.9 km/h 75.3% 0 mm 32 W/m2
15:34 6.6 °C 3.2 °C 1022.6 hPa North 7.1 km/h 17.7 km/h 76% 0 mm 23 W/m2
15:39 6.4 °C 3 °C 1022.9 hPa North 3.4 km/h 11.3 km/h 76% 0 mm 19 W/m2
15:44 6.3 °C 2.9 °C 1022.9 hPa North 5.6 km/h 14.5 km/h 76% 0 mm 16 W/m2
15:49 6.3 °C 2.8 °C 1022.9 hPa NNE 9 km/h 11.3 km/h 76% 0 mm 12 W/m2
15:54 6.2 °C 2.8 °C 1022.9 hPa NNE 9.2 km/h 17.7 km/h 76% 0 mm 16 W/m2
15:59 6.2 °C 2.8 °C 1023.2 hPa North 6.6 km/h 12.9 km/h 76% 0 mm 12 W/m2
16:04 6.2 °C 2.8 °C 1022.9 hPa North 8.4 km/h 14.5 km/h 76% 0 mm 9 W/m2
16:09 6.1 °C 2.7 °C 1023.2 hPa North 6 km/h 16.1 km/h 76% 0 mm 7 W/m2
16:14 6.1 °C 2.7 °C 1023.2 hPa NNE 6.8 km/h 17.7 km/h 76% 0 mm 5 W/m2
16:19 5.9 °C 2.6 °C 1023.2 hPa NE 4.3 km/h 9.7 km/h 76% 0 mm 0 W/m2
16:24 5.8 °C 2.4 °C 1023.2 hPa NNE 4.7 km/h 11.3 km/h 76% 0 mm 0 W/m2
16:29 5.7 °C 2.5 °C 1023.2 hPa NNE 3.2 km/h 11.3 km/h 76.8% 0 mm 0 W/m2
16:34 5.6 °C 2.4 °C 1023.2 hPa NNE 4.5 km/h 11.3 km/h 77% 0 mm 0 W/m2
16:39 5.5 °C 2.3 °C 1023.2 hPa NNE 3.4 km/h 11.3 km/h 77% 0 mm 0 W/m2
16:44 5.4 °C 2.3 °C 1023.2 hPa NNE 5.6 km/h 11.3 km/h 77.6% 0 mm 0 W/m2
16:49 5.3 °C 2.3 °C 1023.6 hPa North 6.9 km/h 11.3 km/h 78% 0 mm 0 W/m2
16:54 5.3 °C 2.3 °C 1023.6 hPa North 3.4 km/h 8 km/h 78% 0 mm 0 W/m2
16:59 5.3 °C 2.3 °C 1023.2 hPa North 3.9 km/h 9.7 km/h 78% 0 mm 0 W/m2
17:04 5.2 °C 2.2 °C 1023.6 hPa North 4.7 km/h 16.1 km/h 78% 0 mm 0 W/m2
17:09 5.2 °C 2.2 °C 1023.6 hPa North 5.6 km/h 16.1 km/h 78% 0 mm 0 W/m2
17:14 5.1 °C 2.1 °C 1023.6 hPa North 4 km/h 11.3 km/h 78% 0 mm 0 W/m2
17:19 5 °C 2 °C 1023.6 hPa NNW 7.1 km/h 12.9 km/h 78% 0 mm 0 W/m2
17:24 4.9 °C 1.9 °C 1023.6 hPa NW 7.1 km/h 17.7 km/h 78% 0 mm 0 W/m2
17:29 4.9 °C 1.9 °C 1023.9 hPa NNW 7.7 km/h 14.5 km/h 78% 0 mm 0 W/m2
17:33 4.8 °C 1.9 °C 1023.9 hPa NNW 6 km/h 12.9 km/h 78.5% 0 mm 0 W/m2
17:39 4.8 °C 2 °C 1023.9 hPa NNW 8 km/h 14.5 km/h 79% 0 mm 0 W/m2
17:44 4.8 °C 2 °C 1023.9 hPa NNW 5.8 km/h 14.5 km/h 79% 0 mm 0 W/m2
17:49 4.8 °C 2 °C 1023.9 hPa North 7.4 km/h 16.1 km/h 79% 0 mm 0 W/m2
17:54 4.8 °C 2.1 °C 1023.9 hPa North 9 km/h 16.1 km/h 79% 0 mm 0 W/m2
17:59 4.9 °C 2.1 °C 1023.9 hPa North 3.4 km/h 6.4 km/h 79% 0 mm 0 W/m2
18:04 4.9 °C 2.1 °C 1023.9 hPa North 7.6 km/h 12.9 km/h 79% 0 mm 0 W/m2
18:09 5 °C 2.1 °C 1023.9 hPa North 4.7 km/h 12.9 km/h 79% 0 mm 0 W/m2
18:14 5 °C 2.1 °C 1023.9 hPa North 4.7 km/h 9.7 km/h 78.8% 0 mm 0 W/m2
18:19 5 °C 2.1 °C 1023.9 hPa North 5.5 km/h 12.9 km/h 78.8% 0 mm 0 W/m2
18:24 4.9 °C 2.1 °C 1023.9 hPa North 4 km/h 11.3 km/h 79% 0 mm 0 W/m2
18:29 4.9 °C 2.1 °C 1023.9 hPa North 6.4 km/h 14.5 km/h 79% 0 mm 0 W/m2
18:34 4.9 °C 2.1 °C 1024.3 hPa North 5.1 km/h 16.1 km/h 79% 0 mm 0 W/m2
18:39 4.8 °C 2 °C 1024.3 hPa NNE 8 km/h 12.9 km/h 79% 0 mm 0 W/m2
18:44 4.8 °C 2 °C 1024.6 hPa NNE 7.6 km/h 12.9 km/h 79% 0 mm 0 W/m2
18:49 4.7 °C 1.9 °C 1024.6 hPa NNE 4.8 km/h 9.7 km/h 79% 0 mm 0 W/m2
18:54 4.7 °C 1.9 °C 1024.6 hPa NNE 4 km/h 12.9 km/h 79% 0 mm 0 W/m2
18:59 4.7 °C 1.8 °C 1024.6 hPa North 7.2 km/h 14.5 km/h 79% 0 mm 0 W/m2
19:04 4.6 °C 1.8 °C 1024.6 hPa North 2.6 km/h 8 km/h 79.2% 0 mm 0 W/m2
19:09 4.5 °C 1.8 °C 1024.6 hPa North 4.7 km/h 8 km/h 80% 0 mm 0 W/m2
19:14 4.4 °C 1.7 °C 1024.9 hPa North 6 km/h 14.5 km/h 80% 0 mm 0 W/m2
19:19 4.4 °C 1.7 °C 1024.9 hPa North 5.3 km/h 11.3 km/h 80% 0 mm 0 W/m2
19:24 4.4 °C 1.7 °C 1024.9 hPa North 6.4 km/h 14.5 km/h 80% 0 mm 0 W/m2
19:29 4.4 °C 1.7 °C 1024.9 hPa North 7.2 km/h 14.5 km/h 80% 0 mm 0 W/m2
19:34 4.4 °C 1.7 °C 1024.9 hPa NNW 7.2 km/h 14.5 km/h 80% 0 mm 0 W/m2
19:39 4.3 °C 1.6 °C 1024.9 hPa NNW 6.4 km/h 14.5 km/h 80% 0 mm 0 W/m2
19:44 4.3 °C 1.6 °C 1024.9 hPa North 4.3 km/h 14.5 km/h 80% 0 mm 0 W/m2
19:49 4.3 °C 1.6 °C 1025.3 hPa North 4 km/h 11.3 km/h 80% 0 mm 0 W/m2
19:54 4.2 °C 1.6 °C 1025.3 hPa North 5.8 km/h 11.3 km/h 80.4% 0 mm 0 W/m2
19:59 4.2 °C 1.7 °C 1025.3 hPa North 7.7 km/h 12.9 km/h 80.8% 0 mm 0 W/m2
20:04 4.2 °C 1.7 °C 1025.3 hPa North 7.7 km/h 16.1 km/h 81% 0 mm 0 W/m2
20:09 4.1 °C 1.6 °C 1025.3 hPa North 6.8 km/h 12.9 km/h 81% 0 mm 0 W/m2
20:14 4.1 °C 1.6 °C 1025.3 hPa NNW 9.7 km/h 17.7 km/h 81% 0 mm 0 W/m2
20:19 4.1 °C 1.6 °C 1025.3 hPa NNW 7.9 km/h 16.1 km/h 81% 0 mm 0 W/m2
20:24 4.1 °C 1.6 °C 1025.3 hPa NNW 7.1 km/h 17.7 km/h 81% 0 mm 0 W/m2
20:29 4.1 °C 1.6 °C 1025.3 hPa NNW 8 km/h 17.7 km/h 81% 0 mm 0 W/m2
20:34 4.1 °C 1.6 °C 1025.6 hPa NNW 5.1 km/h 11.3 km/h 81% 0 mm 0 W/m2
20:39 4.1 °C 1.6 °C 1025.6 hPa NNW 5.8 km/h 12.9 km/h 81% 0 mm 0 W/m2
20:44 4 °C 1.5 °C 1025.6 hPa North 6 km/h 16.1 km/h 81% 0 mm 0 W/m2
20:49 3.9 °C 1.4 °C 1025.6 hPa North 5.8 km/h 16.1 km/h 81% 0 mm 0 W/m2
20:54 3.9 °C 1.4 °C 1025.6 hPa NNW 5 km/h 16.1 km/h 81% 0 mm 0 W/m2
20:59 3.9 °C 1.4 °C 1025.6 hPa North 7.2 km/h 14.5 km/h 81% 0 mm 0 W/m2
21:04 3.9 °C 1.4 °C 1025.6 hPa North 6.4 km/h 16.1 km/h 81% 0 mm 0 W/m2
21:09 3.8 °C 1.3 °C 1025.6 hPa North 8.2 km/h 17.7 km/h 81% 0 mm 0 W/m2
21:14 3.8 °C 1.3 °C 1025.6 hPa NNW 7.1 km/h 16.1 km/h 81% 0 mm 0 W/m2
21:19 3.8 °C 1.3 °C 1025.6 hPa NNW 6 km/h 11.3 km/h 81% 0 mm 0 W/m2
21:24 3.8 °C 1.3 °C 1025.6 hPa NNW 5.3 km/h 11.3 km/h 81% 0 mm 0 W/m2
21:29 3.7 °C 1.3 °C 1025.6 hPa NNW 5 km/h 9.7 km/h 81.2% 0 mm 0 W/m2
21:34 3.7 °C 1.3 °C 1025.6 hPa NNW 8.4 km/h 14.5 km/h 81.8% 0 mm 0 W/m2
21:39 3.6 °C 1.3 °C 1026 hPa North 3.4 km/h 14.5 km/h 82% 0 mm 0 W/m2
21:44 3.6 °C 1.3 °C 1026 hPa NNW 5.3 km/h 11.3 km/h 82% 0 mm 0 W/m2
21:49 3.6 °C 1.3 °C 1026 hPa NNW 3.4 km/h 11.3 km/h 82% 0 mm 0 W/m2
21:54 3.6 °C 1.3 °C 1026 hPa North 4 km/h 11.3 km/h 82% 0 mm 0 W/m2
21:59 3.6 °C 1.3 °C 1026 hPa North 2.9 km/h 8 km/h 82% 0 mm 0 W/m2
22:04 3.5 °C 1.2 °C 1026 hPa North 1.4 km/h 6.4 km/h 82% 0 mm 0 W/m2
22:09 3.5 °C 1.2 °C 1026 hPa North 3.4 km/h 9.7 km/h 82% 0 mm 0 W/m2
22:14 3.4 °C 1.2 °C 1026 hPa North 1.3 km/h 4.8 km/h 82% 0 mm 0 W/m2
22:19 3.4 °C 1.1 °C 1026.3 hPa North 2.6 km/h 8 km/h 82% 0 mm 0 W/m2
22:24 3.4 °C 1.1 °C 1026.3 hPa North 1.3 km/h 6.4 km/h 82% 0 mm 0 W/m2
22:29 3.4 °C 1.1 °C 1026.3 hPa North 2.1 km/h 9.7 km/h 82% 0 mm 0 W/m2
22:34 3.4 °C 1.1 °C 1026.6 hPa North 1 km/h 4.8 km/h 82% 0 mm 0 W/m2
22:39 3.3 °C 1.1 °C 1026.6 hPa North 1.6 km/h 6.4 km/h 82% 0 mm 0 W/m2
22:44 3.2 °C 0.9 °C 1026.6 hPa North 2.1 km/h 8 km/h 82% 0 mm 0 W/m2
22:49 3.2 °C 1.1 °C 1026.6 hPa North 3.4 km/h 9.7 km/h 83% 0 mm 0 W/m2
22:54 3.2 °C 1.1 °C 1026.6 hPa North 4.3 km/h 12.9 km/h 83% 0 mm 0 W/m2
22:59 3.2 °C 1.1 °C 1026.6 hPa North 3.4 km/h 8 km/h 83% 0 mm 0 W/m2
23:04 3.1 °C 1 °C 1026.6 hPa North 5.8 km/h 14.5 km/h 83% 0 mm 0 W/m2
23:09 3.1 °C 1 °C 1026.6 hPa North 5.5 km/h 12.9 km/h 83% 0 mm 0 W/m2
23:14 3.1 °C 1 °C 1026.6 hPa North 5.5 km/h 12.9 km/h 83% 0 mm 0 W/m2
23:19 3.2 °C 1.1 °C 1027 hPa North 7.1 km/h 16.1 km/h 83.4% 0 mm 0 W/m2
23:24 3.2 °C 1.2 °C 1027 hPa North 7.4 km/h 22.5 km/h 83.8% 0 mm 0 W/m2
23:29 3.2 °C 1.2 °C 1027 hPa North 6.3 km/h 17.7 km/h 84% 0 mm 0 W/m2
23:34 3.2 °C 1.2 °C 1027 hPa NNE 8 km/h 14.5 km/h 84% 0 mm 0 W/m2
23:39 3.3 °C 1.3 °C 1027 hPa North 7.1 km/h 14.5 km/h 84% 0 mm 0 W/m2
23:44 3.3 °C 1.3 °C 1027 hPa North 3.1 km/h 12.9 km/h 84% 0 mm 0 W/m2
23:49 3.4 °C 1.4 °C 1027 hPa North 4.5 km/h 11.3 km/h 84% 0 mm 0 W/m2
23:54 3.4 °C 1.4 °C 1027 hPa North 0.3 km/h 3.2 km/h 84% 0 mm 0 W/m2
23:59 3.4 °C 1.4 °C 1027 hPa NNE 4.7 km/h 16.1 km/h 84% 0 mm 0 W/m2
Bath Spa Weather
Compliments of Weather Underground - 2 mb